Latest Weather Observations for Spring Bay

IDT60801

Issued at 10:35 pm EDT Friday 24 October 2014 (issued every 30 minutes, with the page automatically refreshed every 10 minutes)

About weather observations | Map of weather stations | Latest weather observations for TAS | Other Formats
Station Details ID: 092133 Name: SPRING BAY NTC AWS Lat: -42.55 Lon: 147.93 Height: 0.0 m
Data from the previous 72 hours. | See also: Recent months for locations in Tasmania
Date/Time
EDT
Temp
°C
App
Temp
°C
Dew
Point
Rel
Hum
%
Delta-T
°C
Wind Press
QNH
hPa
Press
MSL
hPa
Rain
since 9 am
mm
Dir
 
Spd
km/h
Gust
km/h
Spd
kts
Gust
kts
24/10:30pm 14.4 - - - - SSW 4 6 2 3 1008.4 1008.4 -
24/10:00pm 14.6 - - - - CALM 0 4 0 2 1008.5 1008.5 -
24/09:30pm 15.1 - - - - WNW 6 9 3 5 1009.1 1009.1 -
24/09:00pm 15.6 - - - - N 9 13 5 7 1008.8 1008.8 -
24/08:30pm 15.5 - - - - NNW 13 17 7 9 1009.0 1009.0 -
24/08:00pm 15.6 - - - - N 26 39 14 21 1008.2 1008.2 -
24/07:30pm 15.8 - - - - N 13 28 7 15 1008.5 1008.5 -
24/07:00pm 16.0 - - - - N 20 30 11 16 1009.6 1009.6 -
24/06:30pm 15.9 - - - - N 19 28 10 15 1010.3 1010.3 -
24/06:00pm 16.0 - - - - N 19 33 10 18 1009.8 1009.8 -
24/05:30pm 15.6 - - - - N 15 33 8 18 1010.1 1010.1 -
24/05:00pm 15.7 - - - - NNE 24 41 13 22 1010.3 1010.3 -
24/04:30pm 15.4 - - - - NNE 22 41 12 22 1010.6 1010.6 -
24/04:00pm 15.1 - - - - N 17 33 9 18 1011.3 1011.3 -
24/03:30pm 14.9 - - - - N 17 32 9 17 1012.0 1012.0 -
24/03:00pm 14.9 - - - - N 15 28 8 15 1012.7 1012.7 -
24/02:30pm 14.7 - - - - N 19 32 10 17 1013.3 1013.3 -
24/02:00pm 14.5 - - - - N 15 30 8 16 1013.9 1013.9 -
24/01:30pm 14.2 - - - - N 13 24 7 13 1014.7 1014.7 -
24/01:00pm 13.9 - - - - N 9 20 5 11 1015.3 1015.3 -
24/12:30pm 13.8 - - - - N 20 35 11 19 1015.8 1015.8 -
24/12:00pm 13.8 - - - - N 15 30 8 16 1016.5 1016.5 -
24/11:30am 13.7 - - - - N 20 33 11 18 1017.0 1017.0 -
24/11:00am 13.3 - - - - N 15 30 8 16 1017.4 1017.4 -
24/10:30am 13.1 - - - - N 17 35 9 19 1018.0 1018.0 -
24/10:00am 13.0 - - - - N 19 37 10 20 1018.3 1018.3 -
24/09:30am 13.1 - - - - N 22 39 12 21 1018.9 1018.9 -
24/09:00am 13.2 - - - - N 20 39 11 21 1019.6 1019.6 -
24/08:30am 13.2 - - - - N 19 35 10 19 1019.9 1019.9 -
24/08:00am 13.2 - - - - N 19 33 10 18 1020.4 1020.4 -
24/07:30am 13.0 - - - - N 19 32 10 17 1020.4 1020.4 -
24/07:00am 12.8 - - - - N 17 33 9 18 1020.8 1020.8 -
24/06:30am 12.5 - - - - N 13 28 7 15 1021.0 1021.0 -
24/06:00am 12.3 - - - - NNE 19 35 10 19 1021.1 1021.1 -
24/05:30am 12.2 - - - - N 13 26 7 14 1021.2 1021.2 -
24/05:00am 12.2 - - - - N 19 32 10 17 1021.5 1021.5 -
24/04:30am 12.2 - - - - N 15 28 8 15 1021.8 1021.8 -
24/04:00am 11.9 - - - - N 7 11 4 6 1022.4 1022.4 -
24/03:30am 11.9 - - - - N 9 13 5 7 1022.7 1022.7 -
24/03:00am 11.9 - - - - N 11 19 6 10 1023.0 1023.0 -
24/02:30am 11.9 - - - - N 17 30 9 16 1023.5 1023.5 -
24/02:00am 11.8 - - - - N 11 20 6 11 1023.9 1023.9 -
24/01:30am 11.7 - - - - N 9 17 5 9 1024.3 1024.3 -
24/01:00am 11.7 - - - - N 15 28 8 15 1024.4 1024.4 -
24/12:30am 11.7 - - - - N 13 26 7 14 1024.9 1024.9 -
24/12:00am 11.5 - - - - N 9 22 5 12 1025.2 1025.2 -
 
Date/Time
EDT
Temp
°C
App
Temp
°C
Dew
Point
Rel
Hum
%
Delta-T
°C
Wind Press
QNH
hPa
Press
MSL
hPa
Rain
since 9 am
mm
Dir
 
Spd
km/h
Gust
km/h
Spd
kts
Gust
kts
23/11:30pm 11.6 - - - - N 11 22 6 12 1025.3 1025.3 -
23/11:00pm 11.5 - - - - N 11 19 6 10 1025.4 1025.4 -
23/10:30pm 11.4 - - - - N 11 22 6 12 1025.7 1025.7 -
23/10:00pm 11.5 - - - - NNE 13 19 7 10 1026.0 1026.0 -
23/09:30pm 11.3 - - - - NE 13 20 7 11 1026.3 1026.3 -
23/09:00pm 11.4 - - - - NNE 9 17 5 9 1026.4 1026.4 -
23/08:30pm 11.7 - - - - NE 13 19 7 10 1026.3 1026.3 -
23/08:00pm 11.7 - - - - ENE 11 17 6 9 1026.1 1026.1 -
23/07:30pm 11.9 - - - - ENE 11 20 6 11 1026.0 1026.0 -
23/07:00pm 12.3 - - - - ENE 13 20 7 11 1025.7 1025.7 -
23/06:30pm 12.6 - - - - NE 9 17 5 9 1025.6 1025.6 -
23/06:00pm 12.6 - - - - NE 15 20 8 11 1025.5 1025.5 -
23/05:30pm 12.8 - - - - NE 15 22 8 12 1025.4 1025.4 -
23/05:00pm 12.7 - - - - NE 17 24 9 13 1025.5 1025.5 -
23/04:30pm 12.7 - - - - NE 15 24 8 13 1025.4 1025.4 -
23/04:00pm 12.6 - - - - ENE 17 26 9 14 1025.3 1025.3 -
23/03:30pm 13.1 - - - - ENE 20 26 11 14 1025.3 1025.3 -
23/03:00pm 13.3 - - - - E 9 22 5 12 1025.5 1025.5 -
23/02:30pm 13.3 - - - - SE 17 20 9 11 1025.6 1025.6 -
23/02:00pm 13.3 - - - - SE 20 26 11 14 1025.5 1025.5 -
23/01:30pm 13.3 - - - - ESE 20 26 11 14 1025.5 1025.5 -
23/01:00pm 13.2 - - - - SE 24 28 13 15 1025.4 1025.4 -
23/12:30pm 13.3 - - - - SE 26 30 14 16 1025.6 1025.6 -
23/12:00pm 13.2 - - - - SE 24 28 13 15 1025.8 1025.8 -
23/11:30am 12.7 - - - - SE 24 30 13 16 1026.1 1026.1 -
23/11:00am 12.8 - - - - SE 24 28 13 15 1026.1 1026.1 -
23/10:30am 12.8 - - - - SE 26 32 14 17 1026.2 1026.2 -
23/10:00am 12.6 - - - - SE 26 30 14 16 1026.0 1026.0 -
23/09:30am 12.5 - - - - SE 22 30 12 16 1025.9 1025.9 -
23/09:00am 12.2 - - - - SE 24 28 13 15 1025.7 1025.7 -
23/08:30am 11.9 - - - - S 24 30 13 16 1025.2 1025.2 -
23/08:00am 11.9 - - - - S 20 28 11 15 1024.8 1024.8 -
23/07:30am 11.8 - - - - S 19 26 10 14 1024.5 1024.5 -
23/07:00am 11.7 - - - - S 17 20 9 11 1024.1 1024.1 -
23/06:30am 11.6 - - - - S 20 26 11 14 1023.6 1023.6 -
23/06:00am 11.7 - - - - SSE 24 33 13 18 1023.1 1023.1 -
23/05:30am 11.9 - - - - S 24 30 13 16 1022.6 1022.6 -
23/05:00am 12.0 - - - - S 17 20 9 11 1022.1 1022.1 -
23/04:30am 12.2 - - - - S 24 30 13 16 1021.7 1021.7 -
23/04:00am 12.1 - - - - S 30 37 16 20 1021.4 1021.4 -
23/03:30am 11.8 - - - - S 32 41 17 22 1021.2 1021.2 -
23/03:00am 12.6 - - - - S 35 44 19 24 1021.0 1021.0 -
23/02:30am 13.3 - - - - S 33 44 18 24 1020.5 1020.5 -
23/02:00am 13.9 - - - - S 30 37 16 20 1020.4 1020.4 -
23/01:30am 13.9 - - - - S 24 32 13 17 1020.3 1020.3 -
23/01:00am 14.3 - - - - S 20 30 11 16 1020.2 1020.2 -
23/12:30am 14.4 - - - - SSE 32 39 17 21 1019.7 1019.7 -
23/12:00am 14.5 - - - - SSE 32 37 17 20 1019.3 1019.3 -
 
Date/Time
EDT
Temp
°C
App
Temp
°C
Dew
Point
Rel
Hum
%
Delta-T
°C
Wind Press
QNH
hPa
Press
MSL
hPa
Rain
since 9 am
mm
Dir
 
Spd
km/h
Gust
km/h
Spd
kts
Gust
kts
22/11:30pm 14.6 - - - - SSE 20 28 11 15 1018.9 1018.9 -
22/11:00pm 14.9 - - - - S 26 35 14 19 1018.4 1018.4 -
22/10:30pm 14.6 - - - - S 13 17 7 9 1018.1 1018.1 -
22/10:00pm 14.2 - - - - SE 15 19 8 10 1017.6 1017.6 -
22/09:30pm 14.4 - - - - SE 30 35 16 19 1017.5 1017.5 -
22/09:00pm 14.6 - - - - SE 41 48 22 26 1017.1 1017.1 -
22/08:30pm 15.1 - - - - SSE 52 59 28 32 1016.3 1016.3 -
22/08:16pm 14.9 - - - - ESE 28 50 15 27 1015.8 1015.8 -
22/08:00pm 14.9 - - - - SSE 9 9 5 5 1015.1 1015.1 -
22/07:30pm 15.2 - - - - SE 6 9 3 5 1014.1 1014.1 -
22/07:00pm 15.2 - - - - W 2 6 1 3 1013.7 1013.7 -
22/06:30pm 15.7 - - - - NE 2 4 1 2 1013.7 1013.7 -
22/06:00pm 16.4 - - - - E 2 4 1 2 1013.8 1013.8 -
22/05:30pm 16.8 - - - - ENE 13 15 7 8 1013.6 1013.6 -
22/05:00pm 16.4 - - - - E 6 11 3 6 1013.7 1013.7 -
22/04:30pm 18.4 - - - - NE 19 22 10 12 1013.6 1013.6 -
22/04:00pm 19.1 - - - - NE 19 26 10 14 1013.4 1013.4 -
22/03:30pm 18.3 - - - - NE 24 28 13 15 1013.7 1013.7 -
22/03:00pm 20.2 - - - - ENE 17 24 9 13 1013.7 1013.7 -
22/02:30pm 20.3 - - - - NE 22 32 12 17 1013.8 1013.8 -
22/02:00pm 20.5 - - - - NE 20 28 11 15 1014.5 1014.5 -
22/01:30pm 20.2 - - - - NE 19 26 10 14 1014.9 1014.9 -
22/01:00pm 19.8 - - - - NE 22 28 12 15 1015.2 1015.2 -
22/12:30pm 20.7 - - - - N 15 26 8 14 1015.8 1015.8 -
22/12:00pm 19.8 - - - - NNW 17 28 9 15 1016.7 1016.7 -
22/11:30am 18.1 - - - - NNW 17 24 9 13 1017.4 1017.4 -
22/11:00am 16.8 - - - - NNW 22 28 12 15 1018.2 1018.2 -
22/10:30am 16.4 - - - - NW 22 26 12 14 1018.8 1018.8 -
22/10:00am 15.5 - - - - NW 13 17 7 9 1019.2 1019.2 -

Other Formats:

Comma delimited format used in spreadsheet applications
http://www.bom.gov.au/fwo/IDT60801/IDT60801.95987.axf

JavaScript Object Notation format (JSON) in row-major order
http://www.bom.gov.au/fwo/IDT60801/IDT60801.95987.json